Time;durP1;ratioP1;P1;durP2;ratioP2;P2;SDS_P1;SDS_P2;PMS_P1;PMS_P2;Temp;Humidity;BMP_temperature;BMP_pressure;BME280_temperature;BME280_humidity;BME280_pressure;Samples;Min_cycle;Max_cycle;Signal;HPM_P1;HPM_P2
2023/10/14 00:02:01;;;;;;;11.05;6.70;;;;;;;;;;8301937;28;20042;-88
2023/10/14 00:06:08;;;;;;;16.42;7.18;;;;;;;;;;8302434;28;20086;-87
2023/10/14 00:10:12;;;;;;;13.98;6.85;;;;;;;;;;8284942;28;20086;-94
2023/10/14 00:14:17;;;;;;;17.15;6.85;;;;;;;;;;8302262;28;20038;-92
2023/10/14 00:18:20;;;;;;;14.25;7.15;;;;;;;;;;8301727;28;20121;-95
2023/10/14 00:22:24;;;;;;;12.88;7.32;;;;;;;;;;8302166;28;20037;-96
2023/10/14 00:26:27;;;;;;;15.30;7.75;;;;;;;;;;8293494;28;20128;-95
2023/10/14 00:30:31;;;;;;;19.80;7.32;;;;;;;;;;8296418;28;20401;-96
2023/10/14 00:34:34;;;;;;;15.00;6.82;;;;;;;;;;8296390;28;20040;-87
2023/10/14 00:38:38;;;;;;;15.32;7.07;;;;;;;;;;8299708;28;20038;-90
2023/10/14 00:42:43;;;;;;;14.40;7.18;;;;;;;;;;8302019;28;20125;-87
2023/10/14 00:46:52;;;;;;;17.55;7.32;;;;;;;;;;8304999;28;20068;-96
2023/10/14 00:51:01;;;;;;;;;;;;;;;;;;8315268;28;20041;-88
2023/10/14 00:55:12;;;;;;;14.55;6.72;;;;;;;;;;8303452;28;20432;-87
2023/10/14 00:59:16;;;;;;;14.93;6.57;;;;;;;;;;8298869;28;20042;-86
2023/10/14 01:03:20;;;;;;;13.45;7.32;;;;;;;;;;8305783;28;20081;-88
2023/10/14 01:07:25;;;;;;;14.60;7.00;;;;;;;;;;8310348;28;20097;-90
2023/10/14 01:11:35;;;;;;;14.88;6.30;;;;;;;;;;8307339;28;20057;-86
2023/10/14 01:15:42;;;;;;;14.05;6.53;;;;;;;;;;8311198;28;20042;-95
2023/10/14 01:19:53;;;;;;;14.05;6.45;;;;;;;;;;8309442;28;20053;-87
2023/10/14 01:24:02;;;;;;;12.40;6.50;;;;;;;;;;8313749;28;20049;-96
2023/10/14 01:28:11;;;;;;;12.27;6.20;;;;;;;;;;8298200;28;20053;-91
2023/10/14 01:32:36;;;;;;;14.82;7.15;;;;;;;;;;8302567;28;20056;-88
2023/10/14 01:36:44;;;;;;;18.02;6.15;;;;;;;;;;8307458;28;20076;-96
2023/10/14 01:40:50;;;;;;;9.75;5.38;;;;;;;;;;8316845;28;20053;-95
2023/10/14 01:44:53;;;;;;;11.65;6.38;;;;;;;;;;8285755;28;20048;-94
2023/10/14 01:49:00;;;;;;;11.68;5.68;;;;;;;;;;8302427;28;20045;-96
2023/10/14 01:53:10;;;;;;;13.77;6.13;;;;;;;;;;8300891;28;20070;-89
2023/10/14 01:57:17;;;;;;;12.35;6.18;;;;;;;;;;8303972;28;20504;-93
2023/10/14 02:01:19;;;;;;;11.05;5.47;;;;;;;;;;8312133;28;20065;-90
2023/10/14 02:05:25;;;;;;;10.68;5.15;;;;;;;;;;8313247;28;20081;-93
2023/10/14 02:09:29;;;;;;;13.02;5.05;;;;;;;;;;8315061;28;20037;-89
2023/10/14 02:13:36;;;;;;;13.60;5.85;;;;;;;;;;8306756;28;20074;-92
2023/10/14 02:17:41;;;;;;;14.45;5.57;;;;;;;;;;8301874;28;20524;-93
2023/10/14 02:22:09;;;;;;;11.73;4.88;;;;;;;;;;8309446;28;20070;-87
2023/10/14 02:26:27;;;;;;;10.05;5.35;;;;;;;;;;8304231;28;20042;-91
2023/10/14 02:30:33;;;;;;;12.10;5.43;;;;;;;;;;8321943;28;20049;-96
2023/10/14 02:34:36;;;;;;;16.23;5.78;;;;;;;;;;8318168;28;20454;-90
2023/10/14 02:38:40;;;;;;;12.10;5.15;;;;;;;;;;8318873;28;20081;-90
2023/10/14 02:42:42;;;;;;;13.93;5.10;;;;;;;;;;8314000;28;20075;-89
2023/10/14 02:46:54;;;;;;;8.50;4.82;;;;;;;;;;8319013;28;20046;-87
2023/10/14 02:51:06;;;;;;;8.95;4.72;;;;;;;;;;8292918;28;20164;-87
2023/10/14 02:55:25;;;;;;;13.82;5.75;;;;;;;;;;8320170;28;20058;-86
2023/10/14 02:59:43;;;;;;;12.23;5.43;;;;;;;;;;8324666;28;20073;-88
2023/10/14 03:03:48;;;;;;;15.25;6.50;;;;;;;;;;8312864;28;20034;-95
2023/10/14 03:07:53;;;;;;;11.45;4.93;;;;;;;;;;8314249;28;20089;-93
2023/10/14 03:11:57;;;;;;;12.18;5.30;;;;;;;;;;8323000;28;20045;-96
2023/10/14 03:16:02;;;;;;;10.18;5.30;;;;;;;;;;8317955;28;20065;-92
2023/10/14 03:20:34;;;;;;;11.98;5.22;;;;;;;;;;8314163;28;20049;-96
2023/10/14 03:24:38;;;;;;;12.57;4.93;;;;;;;;;;8317735;28;20045;-96
2023/10/14 03:28:44;;;;;;;9.02;4.47;;;;;;;;;;8305482;28;20065;-90
2023/10/14 03:32:48;;;;;;;10.73;4.82;;;;;;;;;;8307574;28;20042;-87
2023/10/14 03:37:00;;;;;;;8.13;4.57;;;;;;;;;;8308483;28;20049;-96
2023/10/14 03:41:04;;;;;;;11.15;4.63;;;;;;;;;;8316115;28;20049;-87
2023/10/14 03:45:19;;;;;;;10.00;4.65;;;;;;;;;;8319962;28;20481;-88
2023/10/14 03:49:25;;;;;;;9.70;4.75;;;;;;;;;;8314000;28;20048;-95
2023/10/14 03:53:36;;;;;;;14.02;4.85;;;;;;;;;;8318861;28;20050;-94
2023/10/14 03:57:39;;;;;;;9.80;4.53;;;;;;;;;;8321772;28;20053;-89
2023/10/14 04:01:45;;;;;;;15.90;5.07;;;;;;;;;;8315645;28;20457;-95
2023/10/14 04:05:52;;;;;;;12.85;4.75;;;;;;;;;;8309011;28;20077;-95
2023/10/14 04:10:08;;;;;;;10.45;4.50;;;;;;;;;;8304603;28;20049;-86
2023/10/14 04:14:35;;;;;;;12.18;4.72;;;;;;;;;;8313341;28;20066;-87
2023/10/14 04:18:40;;;;;;;12.18;4.68;;;;;;;;;;8309663;28;20037;-95
2023/10/14 04:22:43;;;;;;;8.32;4.35;;;;;;;;;;8312355;28;20469;-96
2023/10/14 04:26:49;;;;;;;11.38;4.85;;;;;;;;;;8308361;28;20128;-87
2023/10/14 04:30:52;;;;;;;9.02;4.50;;;;;;;;;;8307193;28;20132;-88
2023/10/14 04:34:57;;;;;;;12.70;5.60;;;;;;;;;;8306758;28;20374;-96
2023/10/14 04:43:54;;;;;;;8.27;3.92;;;;;;;;;;8499872;27;20391;-95
2023/10/14 04:47:58;;;;;;;12.23;4.70;;;;;;;;;;8478840;28;20073;-96
2023/10/14 04:52:06;;;;;;;10.98;4.20;;;;;;;;;;8467525;28;20112;-87
2023/10/14 04:56:10;;;;;;;8.85;4.28;;;;;;;;;;8488000;28;20043;-96
2023/10/14 05:00:30;;;;;;;13.50;4.63;;;;;;;;;;8500262;28;20043;-94
2023/10/14 05:04:41;;;;;;;11.02;4.55;;;;;;;;;;8487768;28;20039;-90
2023/10/14 05:08:51;;;;;;;11.23;4.32;;;;;;;;;;8480727;28;20047;-95
2023/10/14 05:13:09;;;;;;;12.40;6.05;;;;;;;;;;8481060;28;20476;-89
2023/10/14 05:17:18;;;;;;;9.85;4.75;;;;;;;;;;8468242;28;20048;-96
2023/10/14 05:25:50;;;;;;;12.57;5.28;;;;;;;;;;8498850;28;20138;-92
2023/10/14 05:29:56;;;;;;;13.80;5.45;;;;;;;;;;8502560;28;20434;-87
2023/10/14 05:34:01;;;;;;;11.52;4.80;;;;;;;;;;8487743;28;20044;-88
2023/10/14 05:38:09;;;;;;;9.90;4.38;;;;;;;;;;8495426;28;20047;-95
2023/10/14 05:42:16;;;;;;;10.75;4.32;;;;;;;;;;8510215;28;20122;-87
2023/10/14 05:46:20;;;;;;;12.38;5.00;;;;;;;;;;8505391;28;20020;-87
2023/10/14 05:50:25;;;;;;;13.10;5.50;;;;;;;;;;8510271;28;20062;-88
2023/10/14 05:54:30;;;;;;;14.15;4.28;;;;;;;;;;8487947;28;20093;-88
2023/10/14 05:58:40;;;;;;;11.23;5.00;;;;;;;;;;8467057;28;20387;-88
2023/10/14 06:02:51;;;;;;;9.15;4.78;;;;;;;;;;8477920;28;20048;-93
2023/10/14 06:07:00;;;;;;;13.13;4.90;;;;;;;;;;8482208;28;20071;-89
2023/10/14 06:11:05;;;;;;;11.05;4.53;;;;;;;;;;8479818;28;20047;-96
2023/10/14 06:15:09;;;;;;;7.55;3.63;;;;;;;;;;8472270;28;20052;-96
2023/10/14 06:19:17;;;;;;;9.73;4.00;;;;;;;;;;8468900;28;20486;-88
2023/10/14 06:23:27;;;;;;;9.25;3.95;;;;;;;;;;8464485;28;20099;-90
2023/10/14 06:27:30;;;;;;;14.73;5.43;;;;;;;;;;8467877;28;20042;-89
2023/10/14 06:31:37;;;;;;;13.23;5.32;;;;;;;;;;8472042;28;20134;-94
2023/10/14 06:35:50;;;;;;;11.52;4.75;;;;;;;;;;8438752;28;20502;-90
2023/10/14 06:48:32;;;;;;;14.07;7.57;;;;;;;;;;8449214;28;20144;-91
2023/10/14 06:57:35;;;;;;;10.65;4.60;;;;;;;;;;8320334;28;20046;-90
2023/10/14 07:01:53;;;;;;;10.07;4.25;;;;;;;;;;8336750;28;20053;-94
2023/10/14 07:10:27;;;;;;;9.15;5.07;;;;;;;;;;8253853;28;20045;-96
2023/10/14 07:14:39;;;;;;;11.85;5.22;;;;;;;;;;8324387;28;20130;-94
2023/10/14 07:19:06;;;;;;;11.73;5.13;;;;;;;;;;8297888;28;20113;-95
2023/10/14 07:27:35;;;;;;;12.73;5.00;;;;;;;;;;8349644;28;20442;-91
2023/10/14 07:31:46;;;;;;;13.57;5.15;;;;;;;;;;8348211;28;20033;-90
2023/10/14 07:35:50;;;;;;;10.13;4.45;;;;;;;;;;8370758;28;20102;-89
2023/10/14 07:39:56;;;;;;;9.60;5.00;;;;;;;;;;8392644;28;20041;-93
2023/10/14 07:44:22;;;;;;;11.43;5.63;;;;;;;;;;8330878;28;20108;-89
2023/10/14 07:48:46;;;;;;;12.93;5.15;;;;;;;;;;8391562;28;20036;-89
2023/10/14 08:01:45;;;;;;;8.38;4.95;;;;;;;;;;8326589;28;20041;-89
2023/10/14 08:06:11;;;;;;;13.00;5.90;;;;;;;;;;8327327;28;20074;-89
2023/10/14 08:10:34;;;;;;;10.77;6.53;;;;;;;;;;8308667;28;20081;-89
2023/10/14 08:19:10;;;;;;;14.90;7.53;;;;;;;;;;8311067;28;20053;-91
2023/10/14 08:23:20;;;;;;;11.63;6.88;;;;;;;;;;8324084;28;20081;-89
2023/10/14 08:27:27;;;;;;;11.63;6.53;;;;;;;;;;8384242;28;20598;-89
2023/10/14 08:36:11;;;;;;;10.20;6.05;;;;;;;;;;8437468;28;20095;-89
2023/10/14 08:40:21;;;;;;;14.88;6.43;;;;;;;;;;8490336;28;20134;-89
2023/10/14 08:44:44;;;;;;;11.13;6.90;;;;;;;;;;8494185;28;20043;-95
2023/10/14 08:49:12;;;;;;;13.80;8.57;;;;;;;;;;8482089;28;20061;-88
2023/10/14 08:53:21;;;;;;;13.80;7.32;;;;;;;;;;8481169;28;20023;-89
2023/10/14 08:57:26;;;;;;;11.77;6.85;;;;;;;;;;8474004;28;20051;-96
2023/10/14 09:01:35;;;;;;;10.52;6.53;;;;;;;;;;8469083;28;20024;-88
2023/10/14 09:05:47;;;;;;;12.52;6.88;;;;;;;;;;8455686;28;20403;-96
2023/10/14 09:09:53;;;;;;;14.82;6.82;;;;;;;;;;8454328;28;20047;-89
2023/10/14 09:14:06;;;;;;;12.77;6.97;;;;;;;;;;8459826;28;20049;-88
2023/10/14 09:18:39;;;;;;;12.95;7.13;;;;;;;;;;8462479;28;20063;-87
2023/10/14 09:22:47;;;;;;;15.40;7.43;;;;;;;;;;8445467;28;20100;-90
2023/10/14 09:26:52;;;;;;;10.30;6.82;;;;;;;;;;8468351;28;20056;-88
2023/10/14 09:31:19;;;;;;;10.38;6.35;;;;;;;;;;8467865;28;20055;-89
2023/10/14 09:35:41;;;;;;;13.05;6.43;;;;;;;;;;8483615;28;20069;-89
2023/10/14 09:40:13;;;;;;;10.52;6.72;;;;;;;;;;8467707;28;20032;-91
2023/10/14 10:05:15;;;;;;;15.55;6.75;;;;;;;;;;8243769;28;20062;-89
2023/10/14 10:09:57;;;;;;;12.00;5.82;;;;;;;;;;8253890;28;20059;-89
2023/10/14 10:23:39;;;;;;;12.45;6.32;;;;;;;;;;8294421;28;20050;-87
2023/10/14 10:27:55;;;;;;;9.50;6.53;;;;;;;;;;8303600;22;20032;-88
2023/10/14 10:32:21;;;;;;;12.80;6.55;;;;;;;;;;8398042;28;20052;-88
2023/10/14 10:36:36;;;;;;;14.63;6.70;;;;;;;;;;8389377;28;20124;-89
2023/10/14 10:46:54;;;;;;;11.85;6.85;;;;;;;;;;8388238;28;20088;-90
2023/10/14 10:51:55;;;;;;;11.27;6.90;;;;;;;;;;8297073;28;20665;-89
2023/10/14 11:02:13;;;;;;;11.20;6.60;;;;;;;;;;8272658;28;20046;-88
2023/10/14 11:06:52;;;;;;;15.13;6.10;;;;;;;;;;8289783;28;20102;-88
2023/10/14 11:11:24;;;;;;;13.63;6.13;;;;;;;;;;8273298;28;20057;-88
2023/10/14 11:15:33;;;;;;;11.90;6.47;;;;;;;;;;8282888;28;20054;-89
2023/10/14 11:19:55;;;;;;;11.23;6.55;;;;;;;;;;8292880;28;20038;-88
2023/10/14 11:24:45;;;;;;;15.48;6.60;;;;;;;;;;8354355;28;20406;-88
2023/10/14 11:30:00;;;;;;;13.35;6.07;;;;;;;;;;8199976;29;20078;-88
2023/10/14 11:39:02;;;;;;;13.60;6.32;;;;;;;;;;8122677;29;20090;-88
2023/10/14 11:43:26;;;;;;;11.20;5.97;;;;;;;;;;8083271;29;20062;-93
2023/10/14 11:47:49;;;;;;;13.02;6.38;;;;;;;;;;8163450;29;20032;-89
2023/10/14 12:02:18;;;;;;;11.35;5.57;;;;;;;;;;8192737;28;20060;-88
2023/10/14 12:06:52;;;;;;;16.55;6.90;;;;;;;;;;8310324;28;20085;-88
2023/10/14 12:11:22;;;;;;;11.10;5.80;;;;;;;;;;8223046;28;20085;-88
2023/10/14 12:25:06;;;;;;;;;;;;;;;;;;8311763;28;20486;-89
2023/10/14 12:34:22;;;;;;;11.88;5.88;;;;;;;;;;8269530;28;20287;-87
2023/10/14 12:43:50;;;;;;;11.18;6.15;;;;;;;;;;8165994;29;20052;-87
2023/10/14 12:57:16;;;;;;;15.57;8.10;;;;;;;;;;8253419;28;20483;-87
2023/10/14 13:01:21;;;;;;;15.82;7.57;;;;;;;;;;8499385;22;20049;-88
2023/10/14 13:05:52;;;;;;;15.50;7.53;;;;;;;;;;8363747;28;20037;-88
2023/10/14 13:10:19;;;;;;;11.97;6.43;;;;;;;;;;8366016;28;20144;-87
2023/10/14 13:19:18;;;;;;;20.50;8.35;;;;;;;;;;8357103;28;20028;-87
2023/10/14 13:23:27;;;;;;;12.82;6.60;;;;;;;;;;8347131;28;20069;-87
2023/10/14 13:27:49;;;;;;;16.80;7.53;;;;;;;;;;8337035;28;20069;-87
2023/10/14 13:31:55;;;;;;;10.35;6.65;;;;;;;;;;8336446;28;20053;-86
2023/10/14 13:36:02;;;;;;;12.93;7.22;;;;;;;;;;8331751;28;20046;-88
2023/10/14 13:40:09;;;;;;;14.38;6.60;;;;;;;;;;8347517;28;20036;-90
2023/10/14 13:44:32;;;;;;;15.48;6.88;;;;;;;;;;8343118;28;20077;-87
2023/10/14 13:48:36;;;;;;;17.17;9.20;;;;;;;;;;8355080;28;20046;-94
2023/10/14 13:52:51;;;;;;;12.55;7.07;;;;;;;;;;8359936;28;20046;-96
2023/10/14 13:57:12;;;;;;;11.23;6.40;;;;;;;;;;8345144;28;20045;-95
2023/10/14 14:01:21;;;;;;;11.23;6.32;;;;;;;;;;8321592;28;20089;-89
2023/10/14 14:05:36;;;;;;;14.45;7.75;;;;;;;;;;8331881;28;20050;-89
2023/10/14 14:09:40;;;;;;;14.07;7.15;;;;;;;;;;8330248;28;20088;-95
2023/10/14 14:13:51;;;;;;;16.30;7.38;;;;;;;;;;8333531;28;20054;-92
2023/10/14 14:17:54;;;;;;;15.68;7.22;;;;;;;;;;8323858;28;20092;-92
2023/10/14 14:21:59;;;;;;;10.20;6.43;;;;;;;;;;8316932;28;20041;-91
2023/10/14 14:26:03;;;;;;;11.88;6.82;;;;;;;;;;8334377;28;20045;-93
2023/10/14 14:30:14;;;;;;;12.27;6.95;;;;;;;;;;8339595;28;20120;-95
2023/10/14 14:34:17;;;;;;;18.95;7.70;;;;;;;;;;8332983;28;20043;-94
2023/10/14 14:38:29;;;;;;;15.43;7.68;;;;;;;;;;8333189;28;20048;-88
2023/10/14 14:42:33;;;;;;;15.10;7.07;;;;;;;;;;8329974;28;20507;-95
2023/10/14 14:46:46;;;;;;;17.45;8.68;;;;;;;;;;8332550;28;20045;-95
2023/10/14 14:50:52;;;;;;;11.73;6.97;;;;;;;;;;8331424;28;20054;-94
2023/10/14 14:55:09;;;;;;;16.60;7.05;;;;;;;;;;8325423;28;20112;-92
2023/10/14 14:59:17;;;;;;;15.52;7.50;;;;;;;;;;8338865;28;20167;-89
2023/10/14 15:03:22;;;;;;;13.35;4.30;;;;;;;;;;8336417;28;20141;-87
2023/10/14 15:07:26;;;;;;;7.57;3.65;;;;;;;;;;8322370;28;20493;-90
2023/10/14 15:11:32;;;;;;;4.95;2.45;;;;;;;;;;8332178;28;20048;-92
2023/10/14 15:15:53;;;;;;;9.25;3.03;;;;;;;;;;8341020;28;20056;-93
2023/10/14 15:20:02;;;;;;;6.03;3.03;;;;;;;;;;8310967;28;20417;-93
2023/10/14 15:24:18;;;;;;;4.88;2.20;;;;;;;;;;8343704;28;20123;-88
2023/10/14 15:28:22;;;;;;;9.77;3.00;;;;;;;;;;8346543;28;20045;-86
2023/10/14 15:32:31;;;;;;;9.60;4.40;;;;;;;;;;8286739;28;20080;-87
2023/10/14 15:36:43;;;;;;;7.50;3.63;;;;;;;;;;8339831;28;20105;-88
2023/10/14 15:40:51;;;;;;;11.68;4.22;;;;;;;;;;8341117;28;20045;-94
2023/10/14 15:45:16;;;;;;;11.38;4.03;;;;;;;;;;8349722;28;20052;-89
2023/10/14 15:49:42;;;;;;;9.57;3.45;;;;;;;;;;8341665;28;20050;-92
2023/10/14 15:54:09;;;;;;;10.38;4.00;;;;;;;;;;8345996;28;20057;-89
2023/10/14 15:58:20;;;;;;;6.35;3.38;;;;;;;;;;8338271;28;20045;-87
2023/10/14 16:02:23;;;;;;;6.28;3.40;;;;;;;;;;8337652;28;20124;-92
2023/10/14 16:06:29;;;;;;;9.57;3.97;;;;;;;;;;8341439;28;20044;-91
2023/10/14 16:10:39;;;;;;;8.30;3.90;;;;;;;;;;8335263;28;20111;-87
2023/10/14 16:14:42;;;;;;;10.02;4.47;;;;;;;;;;8321943;28;20041;-89
2023/10/14 16:18:52;;;;;;;11.40;5.72;;;;;;;;;;8326526;28;20083;-91
2023/10/14 16:23:00;;;;;;;10.23;5.43;;;;;;;;;;8343308;28;20120;-89
2023/10/14 16:27:08;;;;;;;12.63;6.35;;;;;;;;;;8343883;28;20447;-90
2023/10/14 16:31:11;;;;;;;13.90;6.00;;;;;;;;;;8336205;28;20075;-92
2023/10/14 16:35:16;;;;;;;11.70;5.47;;;;;;;;;;8320227;28;20057;-91
2023/10/14 16:39:19;;;;;;;12.05;5.68;;;;;;;;;;8337357;28;20042;-90
2023/10/14 16:43:35;;;;;;;19.15;8.82;;;;;;;;;;8333600;28;20068;-90
2023/10/14 16:47:51;;;;;;;12.55;8.00;;;;;;;;;;8319791;28;20508;-91
2023/10/14 16:51:59;;;;;;;12.07;6.90;;;;;;;;;;8346441;28;20081;-92
2023/10/14 17:04:59;;;;;;;11.18;5.90;;;;;;;;;;8342895;28;20196;-89
2023/10/14 17:09:10;;;;;;;10.10;4.85;;;;;;;;;;8334817;28;20045;-89
2023/10/14 17:13:19;;;;;;;;;;;;;;;;;;8286903;28;20052;-90
2023/10/14 17:17:28;;;;;;;;;;;;;;;;;;8298058;28;20450;-90
2023/10/14 17:21:32;;;;;;;7.63;3.10;;;;;;;;;;8316551;28;19929;-91
2023/10/14 17:25:35;;;;;;;6.95;2.80;;;;;;;;;;8323258;28;20048;-87
2023/10/14 17:29:38;;;;;;;6.03;2.80;;;;;;;;;;8314669;28;20053;-88
2023/10/14 17:33:46;;;;;;;6.32;3.00;;;;;;;;;;8324783;28;20448;-88
2023/10/14 17:37:51;;;;;;;8.30;3.50;;;;;;;;;;8327013;28;20045;-94
2023/10/14 17:41:54;;;;;;;11.32;4.30;;;;;;;;;;8315606;28;20048;-94
2023/10/14 17:45:57;;;;;;;11.20;5.38;;;;;;;;;;8325787;28;20056;-90
2023/10/14 17:50:17;;;;;;;10.93;5.45;;;;;;;;;;8332206;28;20057;-88
2023/10/14 17:54:27;;;;;;;17.17;6.22;;;;;;;;;;8324561;28;20290;-91
2023/10/14 17:58:31;;;;;;;13.52;5.60;;;;;;;;;;8332293;28;20113;-95
2023/10/14 18:02:35;;;;;;;17.77;6.60;;;;;;;;;;8333654;28;20141;-95
2023/10/14 18:06:39;;;;;;;13.98;5.55;;;;;;;;;;8334002;28;20112;-92
2023/10/14 18:10:45;;;;;;;13.02;5.15;;;;;;;;;;8334923;28;20064;-88
2023/10/14 18:14:49;;;;;;;12.85;5.60;;;;;;;;;;8334651;28;20489;-90
2023/10/14 18:18:53;;;;;;;9.10;4.25;;;;;;;;;;8333241;28;20508;-90
2023/10/14 18:23:36;;;;;;;8.80;4.88;;;;;;;;;;8332855;28;20474;-90
2023/10/14 18:27:48;;;;;;;8.00;4.10;;;;;;;;;;8333557;28;20041;-96
2023/10/14 18:32:05;;;;;;;9.37;3.97;;;;;;;;;;8330679;28;20477;-87
2023/10/14 18:36:25;;;;;;;8.23;3.97;;;;;;;;;;8332691;28;20052;-94
2023/10/14 18:40:32;;;;;;;7.47;4.00;;;;;;;;;;8331181;28;20042;-91
2023/10/14 18:44:36;;;;;;;7.72;4.70;;;;;;;;;;8329984;28;20049;-93
2023/10/14 18:48:41;;;;;;;8.98;5.00;;;;;;;;;;8321757;28;20038;-87
2023/10/14 18:52:47;;;;;;;9.90;6.05;;;;;;;;;;8325799;28;20135;-92
2023/10/14 18:56:55;;;;;;;13.00;6.80;;;;;;;;;;8322426;28;20137;-91
2023/10/14 19:00:59;;;;;;;10.02;5.50;;;;;;;;;;8329050;28;20045;-86
2023/10/14 19:05:07;;;;;;;11.63;5.35;;;;;;;;;;8328683;28;20091;-87
2023/10/14 19:09:11;;;;;;;9.07;5.45;;;;;;;;;;8328710;28;20048;-96
2023/10/14 19:13:17;;;;;;;8.45;4.72;;;;;;;;;;8322505;28;20048;-87
2023/10/14 19:17:21;;;;;;;16.35;6.03;;;;;;;;;;8328198;28;20424;-89
2023/10/14 19:21:26;;;;;;;8.45;5.22;;;;;;;;;;8326961;28;20465;-86
2023/10/14 19:25:31;;;;;;;8.13;5.10;;;;;;;;;;8327545;28;20451;-86
2023/10/14 19:29:46;;;;;;;10.15;4.82;;;;;;;;;;8328561;28;20045;-94
2023/10/14 19:33:52;;;;;;;10.18;5.72;;;;;;;;;;8329004;28;20099;-95
2023/10/14 19:37:57;;;;;;;11.10;5.65;;;;;;;;;;8327937;28;20095;-93
2023/10/14 19:42:01;;;;;;;9.32;5.25;;;;;;;;;;8328386;28;20052;-89
2023/10/14 19:46:08;;;;;;;11.25;5.72;;;;;;;;;;8326204;28;20052;-94
2023/10/14 19:50:12;;;;;;;9.68;4.82;;;;;;;;;;8327389;28;20049;-92
2023/10/14 19:54:16;;;;;;;9.40;4.95;;;;;;;;;;8328527;28;20429;-90
2023/10/14 19:58:21;;;;;;;12.55;5.32;;;;;;;;;;8326016;28;20045;-91
2023/10/14 20:02:27;;;;;;;8.35;4.35;;;;;;;;;;8327342;28;20390;-86
2023/10/14 20:06:33;;;;;;;10.75;5.13;;;;;;;;;;8325174;28;20041;-95
2023/10/14 20:10:39;;;;;;;8.68;4.72;;;;;;;;;;8326880;28;20038;-88
2023/10/14 20:14:43;;;;;;;8.85;4.93;;;;;;;;;;8326753;28;20052;-88
2023/10/14 20:18:51;;;;;;;12.05;5.32;;;;;;;;;;8325969;28;20641;-94
2023/10/14 20:22:58;;;;;;;11.85;5.82;;;;;;;;;;8325246;28;20045;-96
2023/10/14 20:27:01;;;;;;;11.27;6.43;;;;;;;;;;8328202;28;20045;-96
2023/10/14 20:31:10;;;;;;;13.32;6.28;;;;;;;;;;8326894;28;20041;-94
2023/10/14 20:35:21;;;;;;;11.15;6.60;;;;;;;;;;8327358;28;20397;-92
2023/10/14 20:39:29;;;;;;;11.45;6.00;;;;;;;;;;8330121;28;20046;-93
2023/10/14 20:43:32;;;;;;;11.20;5.35;;;;;;;;;;8328580;28;20057;-87
2023/10/14 20:47:35;;;;;;;13.85;5.10;;;;;;;;;;8324229;28;20476;-94
2023/10/14 20:51:40;;;;;;;16.42;6.60;;;;;;;;;;8329257;28;20053;-88
2023/10/14 20:55:45;;;;;;;10.10;5.28;;;;;;;;;;8329790;28;20086;-95
2023/10/14 20:59:48;;;;;;;9.45;5.20;;;;;;;;;;8327222;28;20052;-90
2023/10/14 21:03:54;;;;;;;10.80;5.40;;;;;;;;;;8327949;28;20191;-90
2023/10/14 21:07:59;;;;;;;14.57;5.00;;;;;;;;;;8323340;28;20646;-88
2023/10/14 21:12:03;;;;;;;10.70;5.20;;;;;;;;;;8327184;28;20042;-89
2023/10/14 21:16:06;;;;;;;10.20;5.28;;;;;;;;;;8329310;28;20192;-95
2023/10/14 21:20:09;;;;;;;13.32;4.75;;;;;;;;;;8326754;28;20124;-91
2023/10/14 21:24:14;;;;;;;8.90;5.10;;;;;;;;;;8330274;28;20120;-90
2023/10/14 21:28:17;;;;;;;9.25;5.03;;;;;;;;;;8334742;28;20047;-93
2023/10/14 21:32:20;;;;;;;11.30;4.57;;;;;;;;;;8333741;28;20073;-95
2023/10/14 21:36:23;;;;;;;10.55;4.63;;;;;;;;;;8335397;28;20116;-91
2023/10/14 21:40:28;;;;;;;13.95;4.63;;;;;;;;;;8334164;28;20469;-88
2023/10/14 21:44:32;;;;;;;12.10;4.65;;;;;;;;;;8333395;28;20052;-86
2023/10/14 21:48:36;;;;;;;11.48;4.68;;;;;;;;;;8335650;28;20061;-88
2023/10/14 21:52:39;;;;;;;10.23;4.70;;;;;;;;;;8334758;28;20050;-88
2023/10/14 21:56:44;;;;;;;17.70;5.00;;;;;;;;;;8334407;28;20045;-92
2023/10/14 22:00:50;;;;;;;10.38;4.45;;;;;;;;;;8334002;28;20052;-94
2023/10/14 22:04:56;;;;;;;8.63;4.47;;;;;;;;;;8333997;28;20044;-92
2023/10/14 22:08:59;;;;;;;9.18;4.80;;;;;;;;;;8347053;28;20042;-87
2023/10/14 22:13:05;;;;;;;8.45;4.47;;;;;;;;;;8338592;28;20180;-89
2023/10/14 22:17:08;;;;;;;10.15;4.50;;;;;;;;;;8351291;28;20049;-88
2023/10/14 22:21:16;;;;;;;11.43;4.20;;;;;;;;;;8340552;28;20077;-91
2023/10/14 22:25:22;;;;;;;10.77;4.00;;;;;;;;;;8336582;28;20041;-89
2023/10/14 22:29:27;;;;;;;10.70;4.05;;;;;;;;;;8335756;28;20041;-88
2023/10/14 22:33:31;;;;;;;9.40;3.72;;;;;;;;;;8330876;28;20583;-94
2023/10/14 22:37:34;;;;;;;9.13;4.15;;;;;;;;;;8334648;28;20121;-94
2023/10/14 22:41:38;;;;;;;10.85;3.78;;;;;;;;;;8337201;28;20044;-96
2023/10/14 22:45:42;;;;;;;9.82;4.13;;;;;;;;;;8339234;28;20052;-88
2023/10/14 22:49:45;;;;;;;9.20;4.10;;;;;;;;;;8340144;28;20076;-88
2023/10/14 22:53:50;;;;;;;9.80;4.25;;;;;;;;;;8336895;28;20050;-94
2023/10/14 22:57:54;;;;;;;9.35;3.78;;;;;;;;;;8340175;28;20600;-94
2023/10/14 23:01:58;;;;;;;6.10;3.45;;;;;;;;;;8336149;28;20551;-95
2023/10/14 23:06:02;;;;;;;10.05;3.97;;;;;;;;;;8336290;28;20082;-92
2023/10/14 23:10:07;;;;;;;12.98;4.53;;;;;;;;;;8334436;28;20056;-96
2023/10/14 23:14:11;;;;;;;8.40;3.83;;;;;;;;;;8334367;28;20048;-93
2023/10/14 23:18:15;;;;;;;8.52;3.78;;;;;;;;;;8332283;28;20105;-89
2023/10/14 23:22:18;;;;;;;6.97;4.50;;;;;;;;;;8332122;28;20411;-91
2023/10/14 23:26:21;;;;;;;10.18;4.57;;;;;;;;;;8334009;28;20120;-89
2023/10/14 23:30:26;;;;;;;12.77;4.50;;;;;;;;;;8331302;28;20180;-92
2023/10/14 23:34:30;;;;;;;17.15;4.55;;;;;;;;;;8337359;28;20064;-87
2023/10/14 23:38:37;;;;;;;11.63;4.43;;;;;;;;;;8344799;28;20041;-91
2023/10/14 23:42:40;;;;;;;16.38;5.43;;;;;;;;;;8341510;28;20041;-90
2023/10/14 23:46:43;;;;;;;14.65;4.57;;;;;;;;;;8338757;28;20041;-86
2023/10/14 23:50:47;;;;;;;11.23;4.50;;;;;;;;;;8336791;28;20049;-93
2023/10/14 23:54:50;;;;;;;10.73;4.85;;;;;;;;;;8330194;28;20404;-88
2023/10/14 23:58:53;;;;;;;12.55;4.35;;;;;;;;;;8336432;28;20071;-89
